Deshler, Ohio
Current Conditions -  °F | °C
As of 7:11 AM on Tuesday 27 Jan 2015 (Local Time) from KFDY Reporting Station
Haze Haze  
Wind Chill:   Ceiling: 12000
Heat Index: 10°   Visibility: 4mi
Dew Point:   Wind: 5mph
Humidity: 80%   Direction: 20°NNE
Pressure: 30.01"   Gusts: NA
Location:  41.21°N, 83.9°W
Report Text: KFDY 271211Z AUTO 02004KT 4SM HZ FEW002 OVC120 M12/M15 A3001 RMK AO2 T11221150
Loading
Personal Weather Stations






























Interactive Weather Map New forecast layout! Learn more

10-Day Weather Forecast

Advertisements
Track Severe Weather on mobile